Time;durP1;ratioP1;P1;durP2;ratioP2;P2;SDS_P1;SDS_P2;PMS_P1;PMS_P2;Temp;Humidity;BMP_temperature;BMP_pressure;BME280_temperature;BME280_humidity;BME280_pressure;Samples;Min_cycle;Max_cycle;Signal;HPM_P1;HPM_P2
2023/02/12 00:00:31;;;;;;;;;;;;;;;;;;5049623;28;19964;-65
2023/02/12 00:02:57;;;;;;;;;;;;;;;;;;5047976;28;19991;-65
2023/02/12 00:05:23;;;;;;;;;;;;;;;;;;5050250;28;19921;-65
2023/02/12 00:07:49;;;;;;;;;;;;;;;;;;5051596;28;20414;-66
2023/02/12 00:10:15;;;;;;;;;;;;;;;;;;5050229;28;19931;-65
2023/02/12 00:12:41;;;;;;;;;;;;;;;;;;5052078;28;19921;-66
2023/02/12 00:15:07;;;;;;;;;;;;;;;;;;5038920;28;20024;-66
2023/02/12 00:17:33;;;;;;;;;;;;;;;;;;5050656;28;20374;-65
2023/02/12 00:19:59;;;;;;;;;;;;;;;;;;5049115;28;19924;-65
2023/02/12 00:22:25;;;;;;;;;;;;;;;;;;5055027;28;19929;-66
2023/02/12 00:24:51;;;;;;;;;;;;;;;;;;5051653;28;20005;-66
2023/02/12 00:27:16;;;;;;;;;;;;;;;;;;5054296;28;19972;-65
2023/02/12 00:29:42;;;;;;;;;;;;;;;;;;5042448;28;20011;-66
2023/02/12 00:32:08;;;;;;;;;;;;;;;;;;5053286;28;19924;-65
2023/02/12 00:34:34;;;;;;;;;;;;;;;;;;5052946;28;20239;-65
2023/02/12 00:37:00;;;;;;;;;;;;;;;;;;5051331;28;19924;-65
2023/02/12 00:39:26;;;;;;;;;;;;;;;;;;5055513;28;20017;-66
2023/02/12 00:41:52;;;;;;;;;;;;;;;;;;5050071;28;20290;-66
2023/02/12 00:44:18;;;;;;;;;;;;;;;;;;5055633;28;19921;-65
2023/02/12 00:46:44;;;;;;;;;;;;;;;;;;5055429;28;19921;-66
2023/02/12 00:49:09;;;;;;;;;;;;;;;;;;5052551;28;20371;-66
2023/02/12 00:51:35;;;;;;;;;;;;;;;;;;5052583;28;20271;-66
2023/02/12 00:54:01;;;;;;;;;;;;;;;;;;5054234;28;19930;-66
2023/02/12 00:56:27;;;;;;;;;;;;;;;;;;5055071;28;19928;-65
2023/02/12 00:58:53;;;;;;;;;;;;;;;;;;5027127;28;20378;-65
2023/02/12 01:01:19;;;;;;;;;;;;;;;;;;5052247;28;20115;-65
2023/02/12 01:03:45;;;;;;;;;;;;;;;;;;5052006;28;19920;-66
2023/02/12 01:06:11;;;;;;;;;;;;;;;;;;5052973;28;19932;-65
2023/02/12 01:08:37;;;;;;;;;;;;;;;;;;5052394;28;19925;-67
2023/02/12 01:11:02;;;;;;;;;;;;;;;;;;5053231;28;19928;-67
2023/02/12 01:13:29;;;;;;;;;;;;;;;;;;5044007;28;19948;-66
2023/02/12 01:15:55;;;;;;;;;;;;;;;;;;5053029;28;19970;-67
2023/02/12 01:18:21;;;;;;;;;;;;;;;;;;5052621;28;19955;-67
2023/02/12 01:20:46;;;;;;;;;;;;;;;;;;5054450;28;19929;-67
2023/02/12 01:23:12;;;;;;;;;;;;;;;;;;5046982;28;19928;-66
2023/02/12 01:25:38;;;;;;;;;;;;;;;;;;5053335;28;20370;-66
2023/02/12 01:28:04;;;;;;;;;;;;;;;;;;5054589;28;19979;-66
2023/02/12 01:30:30;;;;;;;;;;;;;;;;;;5054763;28;19920;-67
2023/02/12 01:32:56;;;;;;;;;;;;;;;;;;5052876;28;20421;-66
2023/02/12 01:35:22;;;;;;;;;;;;;;;;;;5050069;28;19924;-64
2023/02/12 01:37:48;;;;;;;;;;;;;;;;;;5039396;28;19929;-66
2023/02/12 01:40:14;;;;;;;;;;;;;;;;;;5050536;28;19932;-67
2023/02/12 01:42:40;;;;;;;;;;;;;;;;;;5054127;28;19928;-64
2023/02/12 01:45:06;;;;;;;;;;;;;;;;;;5054469;28;20375;-66
2023/02/12 01:47:32;;;;;;;;;;;;;;;;;;5052832;28;19927;-65
2023/02/12 01:49:58;;;;;;;;;;;;;;;;;;5052118;28;19926;-66
2023/02/12 01:52:24;;;;;;;;;;;;;;;;;;5033366;28;19927;-64
2023/02/12 01:54:50;;;;;;;;;;;;;;;;;;5053998;28;19925;-65
2023/02/12 01:57:15;;;;;;;;;;;;;;;;;;5053132;28;19921;-65
2023/02/12 01:59:41;;;;;;;;;;;;;;;;;;5053121;28;20418;-65
2023/02/12 02:02:07;;;;;;;;;;;;;;;;;;5048999;28;19935;-66
2023/02/12 02:04:33;;;;;;;;;;;;;;;;;;5051838;28;19928;-65
2023/02/12 02:06:59;;;;;;;;;;;;;;;;;;5052915;28;19974;-66
2023/02/12 02:09:25;;;;;;;;;;;;;;;;;;5051613;28;20019;-66
2023/02/12 02:14:36;;;;;;;;;;;;;;;;;;5053094;28;19921;-65
2023/02/12 02:17:01;;;;;;;;;;;;;;;;;;5051468;28;20438;-65
2023/02/12 02:19:27;;;;;;;;;;;;;;;;;;5051532;28;19921;-65
2023/02/12 02:21:53;;;;;;;;;;;;;;;;;;5052445;28;20057;-65
2023/02/12 02:24:19;;;;;;;;;;;;;;;;;;5046735;28;19924;-65
2023/02/12 02:26:45;;;;;;;;;;;;;;;;;;5051401;28;19921;-65
2023/02/12 02:29:11;;;;;;;;;;;;;;;;;;5052105;28;20393;-65
2023/02/12 02:31:37;;;;;;;;;;;;;;;;;;5053166;28;20004;-65
2023/02/12 02:34:03;;;;;;;;;;;;;;;;;;5050815;28;20466;-65
2023/02/12 02:36:29;;;;;;;;;;;;;;;;;;5051076;28;20416;-65
2023/02/12 02:38:56;;;;;;;;;;;;;;;;;;5037337;28;20008;-65
2023/02/12 02:41:22;;;;;;;;;;;;;;;;;;5045452;28;19969;-65
2023/02/12 02:43:48;;;;;;;;;;;;;;;;;;5051324;28;19921;-65
2023/02/12 02:46:14;;;;;;;;;;;;;;;;;;5050763;28;20271;-65
2023/02/12 02:48:40;;;;;;;;;;;;;;;;;;5051222;28;19928;-66
2023/02/12 02:51:06;;;;;;;;;;;;;;;;;;5048747;28;19928;-66
2023/02/12 02:53:32;;;;;;;;;;;;;;;;;;5037933;28;19921;-65
2023/02/12 02:55:58;;;;;;;;;;;;;;;;;;5046408;28;19946;-65
2023/02/12 02:58:23;;;;;;;;;;;;;;;;;;5051856;28;19921;-65
2023/02/12 03:00:49;;;;;;;;;;;;;;;;;;5049776;28;19925;-65
2023/02/12 03:03:15;;;;;;;;;;;;;;;;;;5050493;28;19928;-65
2023/02/12 03:05:41;;;;;;;;;;;;;;;;;;5048448;28;20306;-65
2023/02/12 03:08:07;;;;;;;;;;;;;;;;;;5052889;28;19951;-65
2023/02/12 03:10:33;;;;;;;;;;;;;;;;;;5034736;28;20371;-66
2023/02/12 03:12:59;;;;;;;;;;;;;;;;;;5036707;28;19921;-65
2023/02/12 03:15:25;;;;;;;;;;;;;;;;;;5031502;28;20329;-66
2023/02/12 03:17:51;;;;;;;;;;;;;;;;;;5031298;28;19925;-66
2023/02/12 03:20:17;;;;;;;;;;;;;;;;;;5042588;28;19925;-66
2023/02/12 03:22:42;;;;;;;;;;;;;;;;;;5050922;28;19970;-66
2023/02/12 03:25:10;;;;;;;;;;;;;;;;;;5052459;28;20011;-66
2023/02/12 03:27:36;;;;;;;;;;;;;;;;;;5052659;28;19925;-65
2023/02/12 03:30:03;;;;;;;;;;;;;;;;;;5052513;28;19925;-65
2023/02/12 03:32:28;;;;;;;;;;;;;;;;;;5052627;28;19943;-65
2023/02/12 03:34:54;;;;;;;;;;;;;;;;;;5051041;28;19920;-66
2023/02/12 03:37:20;;;;;;;;;;;;;;;;;;5047500;28;19947;-65
2023/02/12 03:39:46;;;;;;;;;;;;;;;;;;5037900;28;19928;-65
2023/02/12 03:42:12;;;;;;;;;;;;;;;;;;5052551;28;19931;-66
2023/02/12 03:44:38;;;;;;;;;;;;;;;;;;5050747;28;20361;-66
2023/02/12 03:47:04;;;;;;;;;;;;;;;;;;5050778;28;20055;-67
2023/02/12 03:49:30;;;;;;;;;;;;;;;;;;5050428;28;19924;-65
2023/02/12 03:51:57;;;;;;;;;;;;;;;;;;5051178;28;19925;-65
2023/02/12 03:54:23;;;;;;;;;;;;;;;;;;5050849;28;20022;-65
2023/02/12 03:56:51;;;;;;;;;;;;;;;;;;5051832;28;19960;-65
2023/02/12 03:59:16;;;;;;;;;;;;;;;;;;5051853;28;19936;-65
2023/02/12 04:01:42;;;;;;;;;;;;;;;;;;5051899;28;19925;-65
2023/02/12 04:04:08;;;;;;;;;;;;;;;;;;5087859;22;19947;-68
2023/02/12 04:06:34;;;;;;;;;;;;;;;;;;5067087;28;19978;-68
2023/02/12 04:09:00;;;;;;;;;;;;;;;;;;5082774;28;19924;-68
2023/02/12 04:11:26;;;;;;;;;;;;;;;;;;5056649;28;19927;-67
2023/02/12 04:13:52;;;;;;;;;;;;;;;;;;5085552;28;20296;-67
2023/02/12 04:16:18;;;;;;;;;;;;;;;;;;5054920;28;19935;-67
2023/02/12 04:18:43;;;;;;;;;;;;;;;;;;5091495;28;19924;-67
2023/02/12 04:21:09;;;;;;;;;;;;;;;;;;5088436;28;20281;-67
2023/02/12 04:23:35;;;;;;;;;;;;;;;;;;5070189;28;19921;-67
2023/02/12 04:26:01;;;;;;;;;;;;;;;;;;5071173;28;20031;-67
2023/02/12 04:28:28;;;;;;;;;;;;;;;;;;5055514;28;20023;-67
2023/02/12 04:30:54;;;;;;;;;;;;;;;;;;5078428;28;19920;-67
2023/02/12 04:33:20;;;;;;;;;;;;;;;;;;5091398;28;20018;-67
2023/02/12 04:35:45;;;;;;;;;;;;;;;;;;5073239;28;19923;-68
2023/02/12 04:38:11;;;;;;;;;;;;;;;;;;5081822;28;19927;-68
2023/02/12 04:40:38;;;;;;;;;;;;;;;;;;5071492;28;20254;-68
2023/02/12 04:43:04;;;;;;;;;;;;;;;;;;5071661;28;19924;-67
2023/02/12 04:45:30;;;;;;;;;;;;;;;;;;5076741;28;19926;-67
2023/02/12 04:47:55;;;;;;;;;;;;;;;;;;5091134;28;20269;-67
2023/02/12 04:50:21;;;;;;;;;;;;;;;;;;5091459;28;19920;-67
2023/02/12 04:52:47;;;;;;;;;;;;;;;;;;5091619;28;19935;-67
2023/02/12 04:55:13;;;;;;;;;;;;;;;;;;5073225;28;20311;-67
2023/02/12 04:57:39;;;;;;;;;;;;;;;;;;5091421;28;20008;-67
2023/02/12 05:00:05;;;;;;;;;;;;;;;;;;5088989;28;19921;-67
2023/02/12 05:02:31;;;;;;;;;;;;;;;;;;5068006;28;20498;-68
2023/02/12 05:04:57;;;;;;;;;;;;;;;;;;5090952;28;20388;-67
2023/02/12 05:07:23;;;;;;;;;;;;;;;;;;5053837;28;19920;-67
2023/02/12 05:09:48;;;;;;;;;;;;;;;;;;5092037;28;20281;-67
2023/02/12 05:12:14;;;;;;;;;;;;;;;;;;5088667;28;20342;-67
2023/02/12 05:14:40;;;;;;;;;;;;;;;;;;5094472;28;19924;-67
2023/02/12 05:17:06;;;;;;;;;;;;;;;;;;5070166;28;19989;-67
2023/02/12 05:19:32;;;;;;;;;;;;;;;;;;5079869;28;19950;-67
2023/02/12 05:21:58;;;;;;;;;;;;;;;;;;5087556;28;19924;-67
2023/02/12 05:24:24;;;;;;;;;;;;;;;;;;5086660;28;20330;-67
2023/02/12 05:26:50;;;;;;;;;;;;;;;;;;5094490;28;19927;-67
2023/02/12 05:29:16;;;;;;;;;;;;;;;;;;5093343;28;20323;-67
2023/02/12 05:31:42;;;;;;;;;;;;;;;;;;5074275;28;19924;-67
2023/02/12 05:34:08;;;;;;;;;;;;;;;;;;5073923;28;19920;-68
2023/02/12 05:36:34;;;;;;;;;;;;;;;;;;5062376;28;19957;-68
2023/02/12 05:39:00;;;;;;;;;;;;;;;;;;5088419;28;19931;-68
2023/02/12 05:41:26;;;;;;;;;;;;;;;;;;5058108;28;19924;-68
2023/02/12 05:43:51;;;;;;;;;;;;;;;;;;5093810;28;19951;-68
2023/02/12 05:46:17;;;;;;;;;;;;;;;;;;5094255;28;19923;-67
2023/02/12 05:48:43;;;;;;;;;;;;;;;;;;5088211;28;20040;-67
2023/02/12 05:51:09;;;;;;;;;;;;;;;;;;5073909;28;20443;-68
2023/02/12 05:53:35;;;;;;;;;;;;;;;;;;5062297;28;19972;-67
2023/02/12 05:56:01;;;;;;;;;;;;;;;;;;5094080;28;19920;-68
2023/02/12 05:58:27;;;;;;;;;;;;;;;;;;5094203;28;19924;-68
2023/02/12 06:00:53;;;;;;;;;;;;;;;;;;5075671;28;19924;-67
2023/02/12 06:03:18;;;;;;;;;;;;;;;;;;5093139;28;20384;-67
2023/02/12 06:05:44;;;;;;;;;;;;;;;;;;5091094;28;19973;-68
2023/02/12 06:08:10;;;;;;;;;;;;;;;;;;5086549;28;20070;-68
2023/02/12 06:10:36;;;;;;;;;;;;;;;;;;5062021;28;19930;-68
2023/02/12 06:13:02;;;;;;;;;;;;;;;;;;5091371;28;19931;-68
2023/02/12 06:15:28;;;;;;;;;;;;;;;;;;5075227;28;21403;-69
2023/02/12 06:17:54;;;;;;;;;;;;;;;;;;5092672;28;19928;-68
2023/02/12 06:20:20;;;;;;;;;;;;;;;;;;5085902;28;22313;-68
2023/02/12 06:22:46;;;;;;;;;;;;;;;;;;5085029;28;19994;-68
2023/02/12 06:25:12;;;;;;;;;;;;;;;;;;5090586;28;19924;-68
2023/02/12 06:27:37;;;;;;;;;;;;;;;;;;5085799;28;19924;-68
2023/02/12 06:30:03;;;;;;;;;;;;;;;;;;5093150;28;19924;-68
2023/02/12 06:32:29;;;;;;;;;;;;;;;;;;5093358;28;19971;-68
2023/02/12 06:34:55;;;;;;;;;;;;;;;;;;5093441;28;19920;-68
2023/02/12 06:37:21;;;;;;;;;;;;;;;;;;5058022;28;19965;-68
2023/02/12 06:39:47;;;;;;;;;;;;;;;;;;5082397;28;20192;-68
2023/02/12 06:42:13;;;;;;;;;;;;;;;;;;5060975;28;20293;-68
2023/02/12 06:44:39;;;;;;;;;;;;;;;;;;5089849;28;19989;-68
2023/02/12 06:47:05;;;;;;;;;;;;;;;;;;5091663;28;20437;-68
2023/02/12 06:49:31;;;;;;;;;;;;;;;;;;5091894;28;19924;-68
2023/02/12 06:51:56;;;;;;;;;;;;;;;;;;5062077;28;19962;-68
2023/02/12 06:54:22;;;;;;;;;;;;;;;;;;5059097;28;19920;-68
2023/02/12 06:56:48;;;;;;;;;;;;;;;;;;5086075;28;19928;-68
2023/02/12 06:59:14;;;;;;;;;;;;;;;;;;5086446;28;20039;-68
2023/02/12 07:01:40;;;;;;;;;;;;;;;;;;5062042;28;19934;-68
2023/02/12 07:04:06;;;;;;;;;;;;;;;;;;5052856;28;20024;-68
2023/02/12 07:06:32;;;;;;;;;;;;;;;;;;5087697;28;20373;-68
2023/02/12 07:08:58;;;;;;;;;;;;;;;;;;5085753;28;19934;-68
2023/02/12 07:11:24;;;;;;;;;;;;;;;;;;5085588;28;19999;-68
2023/02/12 07:13:50;;;;;;;;;;;;;;;;;;5082451;28;19920;-68
2023/02/12 07:16:15;;;;;;;;;;;;;;;;;;5083324;28;19928;-68
2023/02/12 07:18:41;;;;;;;;;;;;;;;;;;5082075;28;19928;-68
2023/02/12 07:21:07;;;;;;;;;;;;;;;;;;5070044;28;19928;-68
2023/02/12 07:23:33;;;;;;;;;;;;;;;;;;5089984;28;20018;-68
2023/02/12 07:25:59;;;;;;;;;;;;;;;;;;5085879;28;20010;-68
2023/02/12 07:28:25;;;;;;;;;;;;;;;;;;5066587;28;19934;-68
2023/02/12 07:30:51;;;;;;;;;;;;;;;;;;5087783;28;19924;-68
2023/02/12 07:33:17;;;;;;;;;;;;;;;;;;5089664;28;19924;-69
2023/02/12 07:35:43;;;;;;;;;;;;;;;;;;5077319;28;19974;-69
2023/02/12 07:38:09;;;;;;;;;;;;;;;;;;5088354;28;19924;-69
2023/02/12 07:40:35;;;;;;;;;;;;;;;;;;5058831;28;20383;-69
2023/02/12 07:43:01;;;;;;;;;;;;;;;;;;5089648;28;19962;-69
2023/02/12 07:45:26;;;;;;;;;;;;;;;;;;5066875;28;19924;-69
2023/02/12 07:47:52;;;;;;;;;;;;;;;;;;5087154;28;19931;-69
2023/02/12 07:50:18;;;;;;;;;;;;;;;;;;5070970;28;19924;-68
2023/02/12 07:52:44;;;;;;;;;;;;;;;;;;5078048;28;19927;-68
2023/02/12 07:55:10;;;;;;;;;;;;;;;;;;5088752;28;19920;-69
2023/02/12 07:57:36;;;;;;;;;;;;;;;;;;5081714;28;20523;-69
2023/02/12 08:00:02;;;;;;;;;;;;;;;;;;5082174;28;20378;-69
2023/02/12 08:02:28;;;;;;;;;;;;;;;;;;5081922;28;20058;-70
2023/02/12 08:04:54;;;;;;;;;;;;;;;;;;5073275;28;20315;-66
2023/02/12 08:07:20;;;;;;;;;;;;;;;;;;5072400;28;19920;-65
2023/02/12 08:09:45;;;;;;;;;;;;;;;;;;5085511;28;19958;-65
2023/02/12 08:12:11;;;;;;;;;;;;;;;;;;5078893;28;19924;-65
2023/02/12 08:14:37;;;;;;;;;;;;;;;;;;5082107;28;19974;-65
2023/02/12 08:17:03;;;;;;;;;;;;;;;;;;5092138;28;20336;-66
2023/02/12 08:19:29;;;;;;;;;;;;;;;;;;5091733;28;19928;-65
2023/02/12 08:21:55;;;;;;;;;;;;;;;;;;5091881;28;19958;-65
2023/02/12 08:24:21;;;;;;;;;;;;;;;;;;5071621;28;20342;-66
2023/02/12 08:26:47;;;;;;;;;;;;;;;;;;5081410;28;20452;-66
2023/02/12 08:29:13;;;;;;;;;;;;;;;;;;5065795;28;19931;-67
2023/02/12 08:31:38;;;;;;;;;;;;;;;;;;5091877;28;20273;-66
2023/02/12 08:34:04;;;;;;;;;;;;;;;;;;5091790;28;19969;-66
2023/02/12 08:36:30;;;;;;;;;;;;;;;;;;5088646;28;20434;-66
2023/02/12 08:38:56;;;;;;;;;;;;;;;;;;5071970;28;19928;-66
2023/02/12 08:41:22;;;;;;;;;;;;;;;;;;5090405;28;19974;-66
2023/02/12 08:43:48;;;;;;;;;;;;;;;;;;5080593;28;19932;-66
2023/02/12 08:46:14;;;;;;;;;;;;;;;;;;5088747;28;19981;-66
2023/02/12 08:48:40;;;;;;;;;;;;;;;;;;5072286;28;20336;-66
2023/02/12 08:51:06;;;;;;;;;;;;;;;;;;5087746;28;19963;-66
2023/02/12 08:53:32;;;;;;;;;;;;;;;;;;5092320;28;19921;-66
2023/02/12 08:55:58;;;;;;;;;;;;;;;;;;5094671;28;19924;-66
2023/02/12 08:58:24;;;;;;;;;;;;;;;;;;5095573;28;19924;-66
2023/02/12 09:00:49;;;;;;;;;;;;;;;;;;5092780;28;20019;-65
2023/02/12 09:03:15;;;;;;;;;;;;;;;;;;5088648;28;20378;-65
2023/02/12 09:05:41;;;;;;;;;;;;;;;;;;5079034;28;19974;-65
2023/02/12 09:08:07;;;;;;;;;;;;;;;;;;5091143;28;20297;-65
2023/02/12 09:10:33;;;;;;;;;;;;;;;;;;5074832;28;19924;-65
2023/02/12 09:12:59;;;;;;;;;;;;;;;;;;5070495;28;19927;-65
2023/02/12 09:15:25;;;;;;;;;;;;;;;;;;5074726;28;19979;-65
2023/02/12 09:17:51;;;;;;;;;;;;;;;;;;5075392;28;19924;-65
2023/02/12 09:20:16;;;;;;;;;;;;;;;;;;5090578;28;19975;-65
2023/02/12 09:22:42;;;;;;;;;;;;;;;;;;5078631;28;19928;-65
2023/02/12 09:25:08;;;;;;;;;;;;;;;;;;5079648;28;20397;-65
2023/02/12 09:27:34;;;;;;;;;;;;;;;;;;5093361;28;19968;-65
2023/02/12 09:30:00;;;;;;;;;;;;;;;;;;5089827;28;19973;-66
2023/02/12 09:32:26;;;;;;;;;;;;;;;;;;5090046;28;20003;-65
2023/02/12 09:34:52;;;;;;;;;;;;;;;;;;5073570;28;19924;-65
2023/02/12 09:37:18;;;;;;;;;;;;;;;;;;5085622;28;19931;-65
2023/02/12 09:39:44;;;;;;;;;;;;;;;;;;5074872;28;20401;-65
2023/02/12 09:42:10;;;;;;;;;;;;;;;;;;5094621;28;19920;-65
2023/02/12 09:44:36;;;;;;;;;;;;;;;;;;5079034;28;19920;-65
2023/02/12 09:47:01;;;;;;;;;;;;;;;;;;5093255;28;20369;-65
2023/02/12 09:49:27;;;;;;;;;;;;;;;;;;5090334;28;20435;-65
2023/02/12 09:51:53;;;;;;;;;;;;;;;;;;5086298;28;19920;-65
2023/02/12 09:54:19;;;;;;;;;;;;;;;;;;5085160;28;19924;-65
2023/02/12 09:56:45;;;;;;;;;;;;;;;;;;5058704;28;19924;-66
2023/02/12 09:59:11;;;;;;;;;;;;;;;;;;5081473;28;19939;-66
2023/02/12 10:01:37;;;;;;;;;;;;;;;;;;5087082;28;20273;-66
2023/02/12 10:04:03;;;;;;;;;;;;;;;;;;5092904;28;19986;-66
2023/02/12 10:06:29;;;;;;;;;;;;;;;;;;5080564;28;19923;-66
2023/02/12 10:08:55;;;;;;;;;;;;;;;;;;5085106;28;19928;-66
2023/02/12 10:11:21;;;;;;;;;;;;;;;;;;5085118;28;19924;-65
2023/02/12 10:13:47;;;;;;;;;;;;;;;;;;5090114;28;19924;-65
2023/02/12 10:16:13;;;;;;;;;;;;;;;;;;5074944;28;19931;-65
2023/02/12 10:18:39;;;;;;;;;;;;;;;;;;5090483;28;19933;-65
2023/02/12 10:21:05;;;;;;;;;;;;;;;;;;5075620;28;19920;-66
2023/02/12 10:23:30;;;;;;;;;;;;;;;;;;5074302;28;19920;-65
2023/02/12 10:25:56;;;;;;;;;;;;;;;;;;5054738;28;19920;-65
2023/02/12 10:28:22;;;;;;;;;;;;;;;;;;5084351;28;19921;-65
2023/02/12 10:30:48;;;;;;;;;;;;;;;;;;5089701;28;19963;-65
2023/02/12 10:33:14;;;;;;;;;;;;;;;;;;5092541;28;20293;-65
2023/02/12 10:35:40;;;;;;;;;;;;;;;;;;5087375;28;19924;-65
2023/02/12 10:38:06;;;;;;;;;;;;;;;;;;5093252;28;19927;-65
2023/02/12 10:40:32;;;;;;;;;;;;;;;;;;5071698;28;20263;-65
2023/02/12 10:42:58;;;;;;;;;;;;;;;;;;5070369;28;20312;-65
2023/02/12 10:45:24;;;;;;;;;;;;;;;;;;5067284;28;19935;-65
2023/02/12 10:47:50;;;;;;;;;;;;;;;;;;5063424;28;19919;-65
2023/02/12 10:50:16;;;;;;;;;;;;;;;;;;5091256;28;20004;-66
2023/02/12 10:52:42;;;;;;;;;;;;;;;;;;5087758;28;20297;-66
2023/02/12 10:55:08;;;;;;;;;;;;;;;;;;5089692;28;19979;-66
2023/02/12 10:57:34;;;;;;;;;;;;;;;;;;5057498;28;19928;-66
2023/02/12 11:00:01;;;;;;;;;;;;;;;;;;5068116;28;20413;-66
2023/02/12 11:02:27;;;;;;;;;;;;;;;;;;5085126;28;20031;-66
2023/02/12 11:04:53;;;;;;;;;;;;;;;;;;5085263;28;20289;-65
2023/02/12 11:07:19;;;;;;;;;;;;;;;;;;5089389;28;19924;-65
2023/02/12 11:09:45;;;;;;;;;;;;;;;;;;5091647;28;19920;-65
2023/02/12 11:12:11;;;;;;;;;;;;;;;;;;5085093;28;20022;-65
2023/02/12 11:14:37;;;;;;;;;;;;;;;;;;5090873;28;19920;-65
2023/02/12 11:17:03;;;;;;;;;;;;;;;;;;5113191;22;19943;-65
2023/02/12 11:19:29;;;;;;;;;;;;;;;;;;5068545;28;20653;-66
2023/02/12 11:21:55;;;;;;;;;;;;;;;;;;5071742;28;19920;-66
2023/02/12 11:24:20;;;;;;;;;;;;;;;;;;5072199;28;19951;-66
2023/02/12 11:26:46;;;;;;;;;;;;;;;;;;5063221;28;19987;-66
2023/02/12 11:29:12;;;;;;;;;;;;;;;;;;5060899;28;19920;-66
2023/02/12 11:31:40;;;;;;;;;;;;;;;;;;5085804;28;19968;-67
2023/02/12 11:34:06;;;;;;;;;;;;;;;;;;5071089;28;20229;-67
2023/02/12 11:36:32;;;;;;;;;;;;;;;;;;5071441;28;20012;-67
2023/02/12 11:38:58;;;;;;;;;;;;;;;;;;5070503;28;19928;-67
2023/02/12 11:41:23;;;;;;;;;;;;;;;;;;5074421;28;20417;-67
2023/02/12 11:43:49;;;;;;;;;;;;;;;;;;5085152;28;19940;-67
2023/02/12 11:46:15;;;;;;;;;;;;;;;;;;5082421;28;19959;-67
2023/02/12 11:48:43;;;;;;;;;;;;;;;;;;5085023;28;20394;-67
2023/02/12 11:51:09;;;;;;;;;;;;;;;;;;5071451;28;19928;-66
2023/02/12 11:53:35;;;;;;;;;;;;;;;;;;5081405;28;20261;-67
2023/02/12 11:56:00;;;;;;;;;;;;;;;;;;5088097;28;19928;-67
2023/02/12 11:58:26;;;;;;;;;;;;;;;;;;5076014;28;19920;-67
2023/02/12 12:00:52;;;;;;;;;;;;;;;;;;5066854;28;19958;-67
2023/02/12 12:03:18;;;;;;;;;;;;;;;;;;5069987;28;20058;-67
2023/02/12 12:05:44;;;;;;;;;;;;;;;;;;5078733;28;20281;-65
2023/02/12 12:08:10;;;;;;;;;;;;;;;;;;5077135;28;19928;-66
2023/02/12 12:10:36;;;;;;;;;;;;;;;;;;5065833;28;19928;-66
2023/02/12 12:13:02;;;;;;;;;;;;;;;;;;5069668;28;20263;-67
2023/02/12 12:20:57;;;;;;;;;;;;;;;;;;5076299;28;19929;-67
2023/02/12 12:23:23;;;;;;;;;;;;;;;;;;5072209;28;19932;-66
2023/02/12 12:25:49;;;;;;;;;;;;;;;;;;5067194;28;19928;-67
2023/02/12 12:28:14;;;;;;;;;;;;;;;;;;5076645;28;20050;-67
2023/02/12 12:30:40;;;;;;;;;;;;;;;;;;5076456;28;19925;-66
2023/02/12 12:33:06;;;;;;;;;;;;;;;;;;5071964;28;20389;-67
2023/02/12 12:35:32;;;;;;;;;;;;;;;;;;5073427;28;19921;-67
2023/02/12 12:37:58;;;;;;;;;;;;;;;;;;5073058;28;19920;-67
2023/02/12 12:40:24;;;;;;;;;;;;;;;;;;5075674;28;19924;-66
2023/02/12 12:42:50;;;;;;;;;;;;;;;;;;5082233;28;19973;-66
2023/02/12 12:45:16;;;;;;;;;;;;;;;;;;5076603;28;20480;-66
2023/02/12 12:47:42;;;;;;;;;;;;;;;;;;5078157;28;20348;-67
2023/02/12 12:50:08;;;;;;;;;;;;;;;;;;5075510;28;20023;-68
2023/02/12 12:52:34;;;;;;;;;;;;;;;;;;5075166;28;20420;-67
2023/02/12 12:55:00;;;;;;;;;;;;;;;;;;5073424;28;19924;-67
2023/02/12 12:57:25;;;;;;;;;;;;;;;;;;5087487;28;19920;-67
2023/02/12 12:59:51;;;;;;;;;;;;;;;;;;5061260;28;19924;-67
2023/02/12 13:02:17;;;;;;;;;;;;;;;;;;5077981;28;19935;-67
2023/02/12 13:04:43;;;;;;;;;;;;;;;;;;5072594;28;19920;-66
2023/02/12 13:07:09;;;;;;;;;;;;;;;;;;5069295;28;20365;-67
2023/02/12 13:09:35;;;;;;;;;;;;;;;;;;5070720;28;19921;-66
2023/02/12 13:12:01;;;;;;;;;;;;;;;;;;5073123;28;20317;-66
2023/02/12 13:14:27;;;;;;;;;;;;;;;;;;5074538;28;20385;-67
2023/02/12 13:16:53;;;;;;;;;;;;;;;;;;5071499;28;19937;-67
2023/02/12 13:19:19;;;;;;;;;;;;;;;;;;5079619;28;20397;-67
2023/02/12 13:21:44;;;;;;;;;;;;;;;;;;5079933;28;20270;-67
2023/02/12 13:24:10;;;;;;;;;;;;;;;;;;5074461;28;19921;-68
2023/02/12 13:26:36;;;;;;;;;;;;;;;;;;5073721;28;19946;-67
2023/02/12 13:29:02;;;;;;;;;;;;;;;;;;5072758;28;20606;-67
2023/02/12 13:31:28;;;;;;;;;;;;;;;;;;5073726;28;19924;-67
2023/02/12 13:33:54;;;;;;;;;;;;;;;;;;5066748;28;19943;-67
2023/02/12 13:36:20;;;;;;;;;;;;;;;;;;5073266;28;19921;-67
2023/02/12 13:38:46;;;;;;;;;;;;;;;;;;5072013;28;19924;-67
2023/02/12 13:41:12;;;;;;;;;;;;;;;;;;5071599;28;19955;-67
2023/02/12 13:43:37;;;;;;;;;;;;;;;;;;5073653;28;20274;-67
2023/02/12 13:46:03;;;;;;;;;;;;;;;;;;5071396;28;20277;-67
2023/02/12 13:48:29;;;;;;;;;;;;;;;;;;5072844;28;20399;-67
2023/02/12 13:50:56;;;;;;;;;;;;;;;;;;5065167;28;19928;-67
2023/02/12 13:53:22;;;;;;;;;;;;;;;;;;5068353;28;19920;-67
2023/02/12 13:55:48;;;;;;;;;;;;;;;;;;5075832;28;19944;-68
2023/02/12 13:58:14;;;;;;;;;;;;;;;;;;5070190;28;19924;-67
2023/02/12 14:00:40;;;;;;;;;;;;;;;;;;5084607;28;19924;-67
2023/02/12 14:03:06;;;;;;;;;;;;;;;;;;5078861;28;19920;-67
2023/02/12 14:05:32;;;;;;;;;;;;;;;;;;5074667;28;20023;-67
2023/02/12 14:07:58;;;;;;;;;;;;;;;;;;5070130;28;19924;-68
2023/02/12 14:10:24;;;;;;;;;;;;;;;;;;5070431;28;20356;-67
2023/02/12 14:12:49;;;;;;;;;;;;;;;;;;5074112;28;19979;-67
2023/02/12 14:15:15;;;;;;;;;;;;;;;;;;5071929;28;20301;-67
2023/02/12 14:17:41;;;;;;;;;;;;;;;;;;5076033;28;19928;-67
2023/02/12 14:20:10;;;;;;;;;;;;;;;;;;5077315;28;19939;-67
2023/02/12 14:22:36;;;;;;;;;;;;;;;;;;5057800;28;19920;-67
2023/02/12 14:25:02;;;;;;;;;;;;;;;;;;5072179;28;19924;-67
2023/02/12 14:27:28;;;;;;;;;;;;;;;;;;5072357;28;19924;-66
2023/02/12 14:29:54;;;;;;;;;;;;;;;;;;5062849;28;19956;-67
2023/02/12 14:32:20;;;;;;;;;;;;;;;;;;5092585;28;19949;-67
2023/02/12 14:34:46;;;;;;;;;;;;;;;;;;5073936;28;19927;-67
2023/02/12 14:37:11;;;;;;;;;;;;;;;;;;5075235;28;19942;-66
2023/02/12 14:39:37;;;;;;;;;;;;;;;;;;5083948;28;20020;-66
2023/02/12 14:42:03;;;;;;;;;;;;;;;;;;5072634;28;20022;-66
2023/02/12 14:44:29;;;;;;;;;;;;;;;;;;5071135;28;20858;-66
2023/02/12 14:46:55;;;;;;;;;;;;;;;;;;5073939;28;19928;-66
2023/02/12 14:49:21;;;;;;;;;;;;;;;;;;5079232;28;20281;-66
2023/02/12 14:51:47;;;;;;;;;;;;;;;;;;5054700;28;19931;-66
2023/02/12 14:54:13;;;;;;;;;;;;;;;;;;5040801;28;19928;-66
2023/02/12 14:56:39;;;;;;;;;;;;;;;;;;5056985;28;20548;-66
2023/02/12 14:59:05;;;;;;;;;;;;;;;;;;5061004;28;19972;-66
2023/02/12 15:01:30;;;;;;;;;;;;;;;;;;5057532;28;19963;-66
2023/02/12 15:03:56;;;;;;;;;;;;;;;;;;5081128;28;20463;-66
2023/02/12 15:06:23;;;;;;;;;;;;;;;;;;5070278;28;19935;-66
2023/02/12 15:08:50;;;;;;;;;;;;;;;;;;5072187;28;19950;-66
2023/02/12 15:11:15;;;;;;;;;;;;;;;;;;5073158;28;19920;-66
2023/02/12 15:13:41;;;;;;;;;;;;;;;;;;5076254;28;19920;-66
2023/02/12 15:16:07;;;;;;;;;;;;;;;;;;5068448;28;20378;-66
2023/02/12 15:18:33;;;;;;;;;;;;;;;;;;5064841;28;19977;-66
2023/02/12 15:21:00;;;;;;;;;;;;;;;;;;5077441;28;19958;-66
2023/02/12 15:23:26;;;;;;;;;;;;;;;;;;5054721;28;19971;-66
2023/02/12 15:25:52;;;;;;;;;;;;;;;;;;5070793;28;19968;-66
2023/02/12 15:28:17;;;;;;;;;;;;;;;;;;5070134;28;19924;-66
2023/02/12 15:30:43;;;;;;;;;;;;;;;;;;5071406;28;19928;-66
2023/02/12 15:33:09;;;;;;;;;;;;;;;;;;5072750;28;19924;-66
2023/02/12 15:35:35;;;;;;;;;;;;;;;;;;5055340;28;19935;-66
2023/02/12 15:38:02;;;;;;;;;;;;;;;;;;5083692;28;20003;-66
2023/02/12 15:40:28;;;;;;;;;;;;;;;;;;5068699;28;19920;-66
2023/02/12 15:42:54;;;;;;;;;;;;;;;;;;5071088;28;19932;-66
2023/02/12 15:45:20;;;;;;;;;;;;;;;;;;5062422;28;19928;-66
2023/02/12 15:47:46;;;;;;;;;;;;;;;;;;5066929;28;19986;-66
2023/02/12 15:50:12;;;;;;;;;;;;;;;;;;5071763;28;20378;-66
2023/02/12 15:52:38;;;;;;;;;;;;;;;;;;5058252;28;19931;-65
2023/02/12 15:55:04;;;;;;;;;;;;;;;;;;5042518;28;20015;-66
2023/02/12 15:57:30;;;;;;;;;;;;;;;;;;5053347;28;19942;-66
2023/02/12 15:59:56;;;;;;;;;;;;;;;;;;5052537;28;19927;-66
2023/02/12 16:02:22;;;;;;;;;;;;;;;;;;5047326;28;20564;-66
2023/02/12 16:04:48;;;;;;;;;;;;;;;;;;5070689;28;19928;-66
2023/02/12 16:07:14;;;;;;;;;;;;;;;;;;5069771;28;20027;-66
2023/02/12 16:09:40;;;;;;;;;;;;;;;;;;5067457;28;20535;-67
2023/02/12 16:12:09;;;;;;;;;;;;;;;;;;5071293;28;19936;-66
2023/02/12 16:14:38;;;;;;;;;;;;;;;;;;5081967;28;20004;-66
2023/02/12 16:17:04;;;;;;;;;;;;;;;;;;5062399;28;19932;-66
2023/02/12 16:19:31;;;;;;;;;;;;;;;;;;5067886;28;19932;-66
2023/02/12 16:21:57;;;;;;;;;;;;;;;;;;5070212;28;19920;-67
2023/02/12 16:24:23;;;;;;;;;;;;;;;;;;5056043;28;20011;-67
2023/02/12 16:26:50;;;;;;;;;;;;;;;;;;5071147;28;19924;-66
2023/02/12 16:29:15;;;;;;;;;;;;;;;;;;5053174;28;19966;-66
2023/02/12 16:31:41;;;;;;;;;;;;;;;;;;5071025;28;19928;-66
2023/02/12 16:34:07;;;;;;;;;;;;;;;;;;5073325;28;20299;-66
2023/02/12 16:36:33;;;;;;;;;;;;;;;;;;5069553;28;19929;-66
2023/02/12 16:38:59;;;;;;;;;;;;;;;;;;5072463;28;19932;-66
2023/02/12 16:41:26;;;;;;;;;;;;;;;;;;5048922;28;19924;-66
2023/02/12 16:43:51;;;;;;;;;;;;;;;;;;5063573;28;19932;-66